Time;durP1;ratioP1;P1;durP2;ratioP2;P2;SDS_P1;SDS_P2;PMS_P1;PMS_P2;Temp;Humidity;BMP_temperature;BMP_pressure;BME280_temperature;BME280_humidity;BME280_pressure;Samples;Min_cycle;Max_cycle;Signal;HPM_P1;HPM_P2
2022/05/04 17:29:18;;;;;;;13.53;7.03;;;;;;;18.62;37.02;100388.66;5137376;27;20556;-73
2022/05/04 17:36:42;;;;;;;7.60;6.20;;;;;;;18.42;36.74;100399.25;5121983;27;20532;-73
2022/05/04 17:37:16;;;;;;;8.20;6.70;;;;;;;18.11;38.14;100398.63;5106230;28;20532;-79
2022/05/04 17:39:43;;;;;;;8.43;5.90;;;;;;;17.64;39.16;100398.72;5113277;28;20450;-76
2022/05/04 17:42:09;;;;;;;9.37;6.33;;;;;;;17.93;38.89;100404.38;5114237;27;20576;-78
2022/05/04 17:44:38;;;;;;;11.13;6.87;;;;;;;17.60;40.35;100394.72;5103815;28;20654;-83
2022/05/04 17:47:05;;;;;;;10.97;6.37;;;;;;;17.23;42.35;100406.34;5115196;28;20527;-85
2022/05/04 17:49:32;;;;;;;13.03;6.30;;;;;;;17.05;42.31;100401.22;5116773;28;20459;-78
2022/05/04 17:52:01;;;;;;;12.80;6.83;;;;;;;17.08;42.81;100407.13;5108236;28;20534;-79
2022/05/04 17:54:28;;;;;;;10.20;6.70;;;;;;;16.99;43.12;100410.03;5124830;28;20478;-78
2022/05/04 17:56:55;;;;;;;12.97;7.10;;;;;;;17.06;43.34;100402.91;5119490;27;20484;-77
2022/05/04 17:59:21;;;;;;;10.13;6.37;;;;;;;16.81;44.26;100402.19;5113759;28;20478;-78
2022/05/04 18:04:34;;;;;;;9.20;7.20;;;;;;;16.96;44.13;100407.69;5111302;28;20453;-79
2022/05/04 18:07:00;;;;;;;11.00;7.57;;;;;;;16.54;44.31;100410.59;5108994;28;20478;-80
2022/05/04 18:09:27;;;;;;;10.90;6.67;;;;;;;16.44;45.23;100420.75;5115093;28;20501;-81
2022/05/04 18:11:54;;;;;;;15.10;7.60;;;;;;;16.37;45.16;100411.69;5109959;28;20522;-80
2022/05/04 18:14:21;;;;;;;8.40;5.93;;;;;;;16.34;45.65;100414.72;5115445;28;20658;-79
2022/05/04 18:16:50;;;;;;;11.50;6.60;;;;;;;16.32;45.70;100405.97;5113873;27;20535;-80
2022/05/04 18:19:16;;;;;;;10.90;6.27;;;;;;;16.17;45.91;100424.72;5114310;28;20450;-82
2022/05/04 18:21:43;;;;;;;9.73;6.60;;;;;;;16.10;46.23;100418.34;5107169;28;21205;-81
2022/05/04 18:24:11;;;;;;;9.13;6.80;;;;;;;16.02;46.11;100431.84;5108892;28;20477;-81
2022/05/04 18:26:37;;;;;;;10.07;6.73;;;;;;;15.87;46.65;100420.91;5118858;28;20584;-81
2022/05/04 18:29:05;;;;;;;12.20;6.93;;;;;;;15.79;46.95;100422.59;5115853;28;20493;-80
2022/05/04 18:31:56;;;;;;;11.83;6.97;;;;;;;15.79;47.06;100441.47;5141818;27;20582;-62
2022/05/04 18:34:23;;;;;;;9.70;6.43;;;;;;;15.73;47.50;100430.50;5137833;27;20456;-63
2022/05/04 18:36:49;;;;;;;9.33;6.97;;;;;;;15.61;48.02;100427.31;5137682;27;20680;-64
2022/05/04 18:39:16;;;;;;;8.43;6.27;;;;;;;15.52;48.89;100436.38;5136008;27;20433;-62
2022/05/04 18:41:43;;;;;;;13.50;6.50;;;;;;;15.34;50.22;100437.38;5149296;27;21075;-63
2022/05/04 18:44:09;;;;;;;10.57;6.00;;;;;;;15.14;51.10;100447.66;5137218;28;20506;-67
2022/05/04 18:46:36;;;;;;;9.27;5.87;;;;;;;14.99;51.22;100442.03;5137056;27;20856;-63
2022/05/04 18:49:05;;;;;;;12.60;5.80;;;;;;;14.83;51.89;100450.09;5146580;27;20486;-63
2022/05/04 18:51:32;;;;;;;9.23;5.27;;;;;;;14.71;52.10;100452.22;5130698;27;20457;-62
2022/05/04 18:54:00;;;;;;;10.10;5.93;;;;;;;14.60;52.52;100452.50;5137065;28;20927;-62
2022/05/04 18:56:27;;;;;;;12.00;7.30;;;;;;;14.55;52.43;100455.69;5147220;27;20549;-62
2022/05/04 18:58:53;;;;;;;12.73;6.60;;;;;;;14.44;52.68;100455.94;5156418;27;20429;-66
2022/05/04 19:01:20;;;;;;;13.30;6.40;;;;;;;14.38;52.65;100456.59;5135389;27;21004;-62
2022/05/04 19:03:47;;;;;;;14.60;6.60;;;;;;;14.27;53.18;100453.19;5134953;27;20464;-67
2022/05/04 19:06:15;;;;;;;9.40;6.20;;;;;;;14.16;54.05;100458.81;5136418;27;20532;-62
2022/05/04 19:08:43;;;;;;;8.47;5.70;;;;;;;14.09;53.72;100458.59;5132478;28;20482;-64
2022/05/04 19:11:10;;;;;;;7.10;5.70;;;;;;;14.00;53.94;100466.78;5133633;27;20854;-64
2022/05/04 19:13:37;;;;;;;9.60;5.40;;;;;;;13.94;54.55;100470.97;5134532;28;20518;-64
2022/05/04 19:16:04;;;;;;;8.67;6.40;;;;;;;13.78;55.05;100470.81;5134785;27;20457;-64
2022/05/04 19:18:31;;;;;;;10.10;5.70;;;;;;;13.66;55.73;100483.66;5134904;28;20467;-65
2022/05/04 19:20:57;;;;;;;8.47;6.60;;;;;;;13.55;55.78;100482.06;5133135;27;20493;-63
2022/05/04 19:23:29;;;;;;;11.93;6.20;;;;;;;13.43;56.28;100488.66;5139238;27;20453;-60
2022/05/04 19:25:56;;;;;;;8.40;6.17;;;;;;;13.36;56.16;100485.72;5134692;27;21116;-66
2022/05/04 19:28:23;;;;;;;12.30;6.77;;;;;;;13.40;56.01;100488.97;5136653;28;20437;-62
2022/05/04 19:30:50;;;;;;;9.67;6.43;;;;;;;13.32;56.08;100487.88;5135233;27;20977;-60
2022/05/04 19:33:17;;;;;;;17.17;6.87;;;;;;;13.27;56.47;100492.00;5134402;27;20476;-68
2022/05/04 19:35:44;;;;;;;10.77;7.07;;;;;;;13.23;56.41;100494.16;5135386;27;20477;-61
2022/05/04 19:38:11;;;;;;;10.70;6.53;;;;;;;13.21;56.61;100495.28;5135953;28;20445;-62
2022/05/04 19:40:40;;;;;;;8.60;7.03;;;;;;;13.17;56.44;100502.78;5134718;27;20564;-63
2022/05/04 19:43:06;;;;;;;8.60;5.93;;;;;;;13.19;56.41;100503.47;5122792;28;20454;-61
2022/05/04 19:45:33;;;;;;;10.50;8.00;;;;;;;13.14;56.77;100503.09;5121387;27;20546;-62
2022/05/04 19:48:00;;;;;;;13.20;7.00;;;;;;;13.09;56.68;100511.63;5121805;28;20430;-62
2022/05/04 19:50:29;;;;;;;9.77;7.23;;;;;;;12.93;57.56;100525.69;5121121;27;20458;-62
2022/05/04 19:52:55;;;;;;;16.20;7.70;;;;;;;12.87;58.09;100520.91;5122352;28;20474;-61
2022/05/04 19:55:29;;;;;;;12.80;9.13;;;;;;;12.85;58.29;100524.75;5119992;28;20719;-61
2022/05/04 19:57:57;;;;;;;11.37;8.70;;;;;;;12.80;58.55;100527.88;5122773;28;20456;-61
2022/05/04 20:00:24;;;;;;;11.57;8.30;;;;;;;12.72;58.51;100531.28;5120920;28;20486;-61
2022/05/04 20:02:51;;;;;;;15.83;8.47;;;;;;;12.67;59.43;100533.56;5121452;28;20451;-61
2022/05/04 20:05:18;;;;;;;13.13;7.97;;;;;;;12.68;59.66;100539.78;5121624;27;20446;-61
2022/05/04 20:07:44;;;;;;;11.33;7.57;;;;;;;12.60;59.27;100537.81;5122398;28;20446;-61
2022/05/04 20:10:12;;;;;;;11.00;7.70;;;;;;;12.57;59.44;100547.00;5120975;27;20456;-61
2022/05/04 20:12:38;;;;;;;11.50;8.30;;;;;;;12.52;59.53;100543.94;5122454;28;20472;-63
2022/05/04 20:15:08;;;;;;;12.23;8.50;;;;;;;12.48;60.19;100544.34;5122308;28;20443;-62
2022/05/04 20:17:35;;;;;;;9.90;7.80;;;;;;;12.42;60.79;100548.47;5118894;28;20466;-61
2022/05/04 20:20:02;;;;;;;16.97;9.17;;;;;;;12.39;60.92;100556.78;5122804;28;20442;-64
2022/05/04 20:22:29;;;;;;;12.80;7.90;;;;;;;12.35;61.44;100560.78;5121702;27;21200;-61
2022/05/04 20:24:56;;;;;;;12.53;8.80;;;;;;;12.26;61.72;100559.81;5121331;28;20486;-64
2022/05/04 20:27:23;;;;;;;11.80;9.07;;;;;;;12.17;62.22;100568.69;5121857;27;20474;-60
2022/05/04 20:29:50;;;;;;;12.50;9.20;;;;;;;12.09;62.68;100564.03;5122497;28;20509;-60
2022/05/04 20:32:18;;;;;;;12.60;8.77;;;;;;;12.05;62.34;100568.84;5121123;28;20489;-61
2022/05/04 20:34:44;;;;;;;14.80;10.70;;;;;;;12.00;62.59;100565.75;5122545;28;20498;-61
2022/05/04 20:37:11;;;;;;;15.13;9.20;;;;;;;11.97;62.38;100568.72;5122300;27;20482;-61
2022/05/04 20:39:38;;;;;;;15.70;9.80;;;;;;;11.92;62.75;100573.66;5121314;28;20442;-62
2022/05/04 20:42:09;;;;;;;13.90;9.80;;;;;;;11.87;62.87;100571.38;5121662;27;20488;-61
2022/05/04 20:44:36;;;;;;;12.10;8.50;;;;;;;11.79;62.77;100570.38;5121550;28;20480;-62
2022/05/04 20:47:03;;;;;;;11.90;8.07;;;;;;;11.75;63.09;100569.81;5121880;27;20525;-62
2022/05/04 20:49:31;;;;;;;15.27;9.90;;;;;;;11.75;63.10;100571.63;5123210;28;20433;-62
2022/05/04 20:52:13;;;;;;;12.57;8.23;;;;;;;11.71;63.09;100568.41;5123019;27;21134;-62
2022/05/04 20:54:47;;;;;;;14.73;9.70;;;;;;;11.61;63.42;100572.91;5121426;28;20458;-61
2022/05/04 20:57:14;;;;;;;12.73;7.90;;;;;;;11.51;63.47;100572.91;5122885;27;20998;-61
2022/05/04 20:59:42;;;;;;;13.30;9.10;;;;;;;11.38;63.72;100575.81;5123096;28;20944;-61
2022/05/04 21:02:09;;;;;;;13.37;9.30;;;;;;;11.41;63.86;100575.56;5122657;28;20893;-62
2022/05/04 21:04:39;;;;;;;12.60;8.97;;;;;;;11.40;63.80;100575.69;5122884;28;20458;-61
2022/05/04 21:07:06;;;;;;;12.90;8.87;;;;;;;11.41;63.50;100574.72;5122159;27;20474;-61
2022/05/04 21:09:33;;;;;;;11.37;8.00;;;;;;;11.41;62.62;100577.41;5121692;28;20446;-61
2022/05/04 21:12:02;;;;;;;11.80;8.07;;;;;;;11.45;62.14;100581.47;5122589;27;20458;-60
2022/05/04 21:14:28;;;;;;;14.33;8.37;;;;;;;11.55;61.10;100584.19;5122037;28;20939;-61
2022/05/04 21:16:55;;;;;;;10.53;7.90;;;;;;;11.56;60.62;100586.72;5121927;28;20484;-61
2022/05/04 21:19:22;;;;;;;11.77;8.03;;;;;;;11.64;59.73;100591.38;5122508;28;20434;-60
2022/05/04 21:21:50;;;;;;;9.67;6.87;;;;;;;11.72;58.81;100598.69;5122281;27;20470;-61
2022/05/04 21:24:17;;;;;;;18.40;7.80;;;;;;;11.73;58.80;100593.19;5122003;28;20454;-60
2022/05/04 21:26:44;;;;;;;14.53;8.83;;;;;;;11.64;58.72;100596.72;5121796;27;20477;-61
2022/05/04 21:29:11;;;;;;;10.73;7.87;;;;;;;11.64;58.70;100594.03;5122509;28;20438;-60
2022/05/04 21:31:38;;;;;;;15.33;8.00;;;;;;;11.58;58.83;100595.47;5121846;27;20557;-59
2022/05/04 21:34:04;;;;;;;10.37;7.37;;;;;;;11.36;59.34;100596.53;5121695;28;20461;-60
2022/05/04 21:36:31;;;;;;;13.47;6.77;;;;;;;11.42;59.35;100604.03;5121863;27;20500;-60
2022/05/04 21:38:59;;;;;;;12.47;7.37;;;;;;;11.43;59.28;100605.69;5121091;28;20470;-60
2022/05/04 21:41:26;;;;;;;11.43;6.23;;;;;;;11.26;60.09;100604.53;5121493;27;20474;-59
2022/05/04 21:43:53;;;;;;;10.93;7.50;;;;;;;11.14;60.06;100604.78;5121758;28;21352;-60
2022/05/04 21:46:20;;;;;;;11.40;6.97;;;;;;;11.04;60.31;100602.94;5121573;27;20482;-61
2022/05/04 21:48:47;;;;;;;11.40;6.43;;;;;;;11.06;60.07;100608.97;5122391;28;20457;-60
2022/05/04 21:51:13;;;;;;;14.50;6.90;;;;;;;10.93;60.32;100611.88;5121108;27;20486;-61
2022/05/04 21:53:40;;;;;;;13.97;6.43;;;;;;;10.89;60.90;100610.44;5121815;28;20453;-60
2022/05/04 21:56:08;;;;;;;14.60;6.93;;;;;;;10.87;60.76;100612.41;5120564;27;20478;-61
2022/05/04 21:58:35;;;;;;;10.90;6.83;;;;;;;10.85;60.58;100617.06;5122403;28;20798;-61
2022/05/04 22:01:01;;;;;;;11.77;6.30;;;;;;;10.81;60.85;100618.28;5120715;28;20482;-63
2022/05/04 22:03:28;;;;;;;10.70;6.83;;;;;;;10.75;61.26;100616.16;5121846;28;20519;-66
2022/05/04 22:05:55;;;;;;;8.63;6.17;;;;;;;10.61;62.03;100620.03;5121403;27;20478;-61
2022/05/04 22:08:22;;;;;;;23.43;6.73;;;;;;;10.59;62.12;100621.13;5121922;28;20427;-65
2022/05/04 22:16:15;;;;;;;16.20;7.10;;;;;;;10.31;62.98;100627.00;5121287;27;20480;-63
2022/05/04 22:18:42;;;;;;;13.40;6.77;;;;;;;10.24;63.51;100622.25;5121738;28;20469;-65
2022/05/04 22:21:09;;;;;;;11.80;6.30;;;;;;;10.16;63.70;100628.25;5121712;28;20497;-64
2022/05/04 22:23:36;;;;;;;11.57;7.07;;;;;;;10.08;63.93;100626.22;5122067;28;20482;-61
2022/05/04 22:26:03;;;;;;;9.97;6.37;;;;;;;10.06;64.15;100638.03;5121082;27;20486;-61
2022/05/04 22:28:31;;;;;;;13.23;6.80;;;;;;;10.02;64.01;100629.41;5121106;28;20446;-65
2022/05/04 22:30:57;;;;;;;12.17;7.00;;;;;;;9.93;64.72;100631.03;5120379;27;20470;-62
2022/05/04 22:33:24;;;;;;;10.30;6.80;;;;;;;9.88;64.61;100641.25;5121639;28;20532;-63
2022/05/04 22:35:51;;;;;;;8.23;6.33;;;;;;;9.88;64.82;100635.91;5120887;27;20495;-64
2022/05/04 22:38:18;;;;;;;12.57;6.60;;;;;;;9.86;64.75;100642.31;5121512;28;20442;-63
2022/05/04 22:40:45;;;;;;;10.17;6.10;;;;;;;9.85;64.64;100643.31;5120526;27;20499;-64
2022/05/04 22:43:11;;;;;;;9.20;6.90;;;;;;;9.77;65.30;100644.81;5120880;28;20814;-60
2022/05/04 22:45:39;;;;;;;10.80;6.33;;;;;;;9.78;65.06;100649.16;5120895;28;20484;-66
2022/05/04 22:48:07;;;;;;;14.63;7.83;;;;;;;9.81;64.92;100645.41;5120973;28;20450;-61
2022/05/04 22:50:34;;;;;;;13.10;6.83;;;;;;;9.77;65.27;100655.50;5121323;27;20469;-62
2022/05/04 22:53:00;;;;;;;10.13;6.47;;;;;;;9.72;65.03;100643.47;5121006;28;20457;-61
2022/05/04 22:55:27;;;;;;;8.03;6.20;;;;;;;9.74;64.76;100645.06;5120775;27;20515;-62
2022/05/04 22:57:54;;;;;;;14.70;7.67;;;;;;;9.70;65.05;100651.59;5121322;28;20445;-61
2022/05/04 23:00:20;;;;;;;12.70;7.20;;;;;;;9.67;65.10;100656.34;5121437;27;20442;-62
2022/05/04 23:02:50;;;;;;;12.50;7.10;;;;;;;9.60;65.01;100653.34;5120954;28;20520;-62
2022/05/04 23:05:17;;;;;;;10.93;6.63;;;;;;;9.57;65.14;100649.09;5120974;27;20538;-62
2022/05/04 23:07:43;;;;;;;11.47;6.60;;;;;;;9.60;64.59;100651.50;5120941;28;20442;-62
2022/05/04 23:10:12;;;;;;;9.03;6.00;;;;;;;9.53;65.18;100649.44;5120708;27;20510;-62
2022/05/04 23:12:39;;;;;;;9.87;6.30;;;;;;;9.53;65.03;100652.13;5121169;28;20459;-62
2022/05/04 23:15:07;;;;;;;6.47;5.87;;;;;;;9.48;65.01;100651.63;5121093;28;20595;-61
2022/05/04 23:17:34;;;;;;;6.90;5.87;;;;;;;9.45;65.30;100649.25;5122745;28;20466;-61
2022/05/04 23:20:02;;;;;;;17.23;6.87;;;;;;;9.40;65.41;100652.25;5125493;28;20453;-61
2022/05/04 23:22:28;;;;;;;7.90;6.37;;;;;;;9.36;65.39;100650.81;5124785;27;20477;-62
2022/05/04 23:24:55;;;;;;;11.63;7.17;;;;;;;9.23;66.14;100648.28;5124643;28;20442;-61
2022/05/04 23:27:22;;;;;;;10.87;7.83;;;;;;;9.22;66.03;100649.25;5124021;27;20490;-61
2022/05/04 23:29:51;;;;;;;8.93;6.27;;;;;;;9.26;65.76;100652.53;5125106;28;20500;-61
2022/05/04 23:32:18;;;;;;;15.77;7.27;;;;;;;9.20;66.03;100643.19;5123645;27;20549;-61
2022/05/04 23:34:45;;;;;;;7.63;6.00;;;;;;;9.12;66.34;100654.47;5125232;28;20463;-61
2022/05/04 23:37:27;;;;;;;10.23;6.83;;;;;;;9.01;66.43;100658.00;5124243;27;20477;-61
2022/05/04 23:39:54;;;;;;;15.30;7.20;;;;;;;8.93;66.79;100656.88;5120473;28;20485;-61
2022/05/04 23:42:21;;;;;;;9.00;6.43;;;;;;;8.92;66.80;100658.69;5123710;27;20978;-61
2022/05/04 23:44:48;;;;;;;11.77;6.43;;;;;;;8.84;67.23;100658.47;5124439;28;20488;-60
2022/05/04 23:47:14;;;;;;;8.63;5.73;;;;;;;8.77;67.47;100657.25;5123668;28;20474;-61
2022/05/04 23:49:41;;;;;;;10.13;6.47;;;;;;;8.73;67.87;100663.75;5124545;28;20442;-62
2022/05/04 23:52:08;;;;;;;8.97;6.60;;;;;;;8.72;68.12;100660.25;5124531;28;20466;-61
2022/05/04 23:54:37;;;;;;;13.10;6.83;;;;;;;8.70;67.64;100664.00;5124060;28;20917;-61
2022/05/04 23:57:04;;;;;;;11.87;6.33;;;;;;;8.62;68.30;100678.75;5123618;27;20474;-62
2022/05/04 23:59:31;;;;;;;9.53;7.03;;;;;;;8.65;68.60;100672.34;5124477;28;20418;-61
